createdAt,value
2018-03-02T00:00:33.866Z,43.40
2018-03-02T00:03:02.664Z,38.88
2018-03-02T00:05:31.446Z,35.90
2018-03-02T00:08:00.277Z,41.33
2018-03-02T00:10:29.121Z,42.38
2018-03-02T00:12:57.938Z,39.00
2018-03-02T00:15:26.733Z,39.45
2018-03-02T00:17:55.568Z,38.40
2018-03-02T00:20:24.382Z,40.55
2018-03-02T00:22:53.215Z,42.50
2018-03-02T00:25:21.999Z,41.65
2018-03-02T00:27:50.850Z,39.17
2018-03-02T00:30:19.709Z,44.30
2018-03-02T00:32:48.541Z,41.00
2018-03-02T00:35:17.080Z,44.92
2018-03-02T00:37:45.873Z,41.88
2018-03-02T00:40:14.727Z,44.75
2018-03-02T00:42:43.535Z,41.65
2018-03-02T00:45:13.159Z,39.83
2018-03-02T00:47:41.947Z,42.33
2018-03-02T00:50:10.826Z,40.50
2018-03-02T00:52:40.451Z,42.60
2018-03-02T00:55:09.262Z,43.55
2018-03-02T00:57:38.085Z,34.75
2018-03-02T01:00:06.601Z,45.58
2018-03-02T01:02:35.534Z,39.33
2018-03-02T01:05:04.367Z,42.62
2018-03-02T01:07:33.434Z,40.45
2018-03-02T01:10:02.248Z,39.40
2018-03-02T01:12:31.844Z,44.83
2018-03-02T01:15:01.421Z,36.70
2018-03-02T01:17:30.297Z,45.92
2018-03-02T01:19:59.152Z,40.12
2018-03-02T01:22:28.695Z,41.75
2018-03-02T01:24:57.567Z,41.83
2018-03-02T01:27:26.358Z,40.10
2018-03-02T01:29:55.300Z,33.40
2018-03-02T01:32:24.091Z,46.67
2018-03-02T01:34:52.934Z,46.28
2018-03-02T01:37:21.714Z,48.83
2018-03-02T01:39:50.544Z,42.62
2018-03-02T01:42:19.384Z,44.70
2018-03-02T01:44:48.221Z,48.72
2018-03-02T01:47:17.159Z,47.65
2018-03-02T01:49:45.954Z,44.30
2018-03-02T01:52:14.815Z,39.83
2018-03-02T01:54:43.707Z,42.55
2018-03-02T01:57:13.322Z,42.65
2018-03-02T01:59:42.917Z,47.38
2018-03-02T02:02:12.515Z,38.20
2018-03-02T02:04:41.346Z,37.15
2018-03-02T02:07:10.166Z,40.08
2018-03-02T02:09:38.990Z,39.78
2018-03-02T02:12:07.793Z,41.80
2018-03-02T02:14:37.363Z,44.17
2018-03-02T02:17:06.183Z,40.92
2018-03-02T02:19:35.769Z,40.80
2018-03-02T02:22:04.642Z,44.78
2018-03-02T02:24:33.478Z,41.13
2018-03-02T02:27:03.072Z,48.00
2018-03-02T02:29:32.669Z,40.85
2018-03-02T02:32:01.542Z,45.30
2018-03-02T02:34:30.317Z,40.05
2018-03-02T02:36:59.185Z,44.58
2018-03-02T02:39:31.203Z,46.50
2018-03-02T02:42:00.022Z,38.55
2018-03-02T02:44:28.870Z,47.80
2018-03-02T02:46:57.664Z,37.95
2018-03-02T02:49:26.501Z,46.17
2018-03-02T02:51:55.338Z,42.05
2018-03-02T02:54:24.171Z,43.00
2018-03-02T02:56:53.016Z,40.58
2018-03-02T02:59:21.562Z,37.67
2018-03-02T03:01:50.392Z,47.70
2018-03-02T03:04:18.917Z,39.15
2018-03-02T03:06:47.734Z,46.92
2018-03-02T03:09:16.523Z,44.13
2018-03-02T03:11:45.340Z,41.80
2018-03-02T03:14:14.144Z,44.15
2018-03-02T03:16:43.756Z,41.08
2018-03-02T03:19:13.297Z,40.75
2018-03-02T03:21:42.160Z,42.80
2018-03-02T03:24:10.997Z,43.60
2018-03-02T03:26:39.768Z,43.10
2018-03-02T03:29:08.584Z,45.17
2018-03-02T03:31:37.395Z,41.17
2018-03-02T03:34:06.999Z,43.00
2018-03-02T03:36:36.535Z,39.97
2018-03-02T03:39:04.778Z,45.10
2018-03-02T03:41:33.637Z,40.72
2018-03-02T03:44:02.450Z,46.13
2018-03-02T03:46:31.266Z,41.05
2018-03-02T03:49:00.049Z,47.30
2018-03-02T03:51:29.643Z,46.30
2018-03-02T03:53:59.230Z,42.17
2018-03-02T03:56:28.035Z,40.97
2018-03-02T03:58:56.874Z,43.65
2018-03-02T04:01:25.654Z,48.87
2018-03-02T04:03:54.493Z,44.83
2018-03-02T04:06:23.326Z,51.90
2018-03-02T04:08:52.115Z,44.03
2018-03-02T04:11:20.943Z,47.70
2018-03-02T04:13:49.736Z,50.03
2018-03-02T04:16:18.575Z,46.72
2018-03-02T04:18:47.404Z,49.63
2018-03-02T04:21:15.956Z,48.85
2018-03-02T04:23:44.782Z,48.95
2018-03-02T04:26:13.457Z,45.83
2018-03-02T04:28:42.319Z,42.65
2018-03-02T04:31:11.122Z,42.15
2018-03-02T04:33:39.907Z,43.65
2018-03-02T04:36:08.708Z,41.75
2018-03-02T04:38:37.464Z,45.08
2018-03-02T04:41:06.306Z,47.38
2018-03-02T04:43:35.151Z,50.30
2018-03-02T04:46:03.986Z,49.33
2018-03-02T04:48:32.817Z,41.22
2018-03-02T04:51:01.628Z,41.08
2018-03-02T04:53:30.450Z,45.20
2018-03-02T04:55:59.274Z,49.15
2018-03-02T04:58:28.083Z,44.83
2018-03-02T05:00:56.917Z,48.50
2018-03-02T05:03:25.718Z,47.55
2018-03-02T05:05:54.519Z,43.38
2018-03-02T05:08:23.335Z,45.22
2018-03-02T05:10:52.174Z,48.60
2018-03-02T05:13:20.992Z,42.40
2018-03-02T05:15:49.794Z,46.22
2018-03-02T05:18:18.653Z,43.17
2018-03-02T05:20:47.487Z,49.65
2018-03-02T05:23:16.320Z,41.67
2018-03-02T05:25:45.147Z,46.42
2018-03-02T05:28:13.925Z,45.85
2018-03-02T05:30:42.761Z,44.90
2018-03-02T05:33:11.594Z,46.05
2018-03-02T05:35:41.167Z,41.78
2018-03-02T05:38:09.998Z,48.60
2018-03-02T05:40:39.602Z,47.13
2018-03-02T05:43:09.199Z,47.33
2018-03-02T05:45:38.804Z,48.25
2018-03-02T05:48:07.627Z,48.38
2018-03-02T05:50:36.417Z,51.63
2018-03-02T05:53:05.231Z,48.17
2018-03-02T05:55:34.029Z,45.50
2018-03-02T05:58:02.870Z,42.42
2018-03-02T06:00:31.680Z,49.42
2018-03-02T06:03:00.528Z,46.45
2018-03-02T06:05:30.073Z,45.72
2018-03-02T06:07:58.891Z,48.80
2018-03-02T06:10:27.730Z,48.65
2018-03-02T06:12:57.271Z,51.80
2018-03-02T06:15:26.083Z,50.05
2018-03-02T06:17:54.882Z,44.55
2018-03-02T06:20:23.738Z,47.47
2018-03-02T06:22:52.589Z,47.03
2018-03-02T06:25:22.150Z,47.45
2018-03-02T06:27:50.654Z,50.33
2018-03-02T06:30:19.501Z,47.15
2018-03-02T06:32:48.326Z,57.50
2018-03-02T06:35:17.140Z,51.83
2018-03-02T06:37:46.706Z,48.95
2018-03-02T06:40:15.591Z,42.30
2018-03-02T06:42:44.555Z,52.30
2018-03-02T06:45:13.377Z,42.05
2018-03-02T06:47:42.186Z,52.03
2018-03-02T06:50:10.954Z,48.30
2018-03-02T06:52:39.815Z,49.90
2018-03-02T06:55:08.627Z,46.45
2018-03-02T06:57:37.455Z,47.47
2018-03-02T07:00:07.046Z,47.60
2018-03-02T07:02:35.934Z,49.40
2018-03-02T07:05:04.443Z,51.33
2018-03-02T07:07:34.070Z,52.78
2018-03-02T07:10:02.935Z,51.53
2018-03-02T07:12:54.589Z,43.63
2018-03-02T07:15:23.410Z,49.97
2018-03-02T07:17:52.210Z,45.50
2018-03-02T07:20:21.030Z,47.45
2018-03-02T07:22:50.692Z,50.38
2018-03-02T07:25:20.247Z,50.22
2018-03-02T07:27:49.826Z,52.45
2018-03-02T07:30:18.349Z,46.72
2018-03-02T07:32:47.560Z,46.03
2018-03-02T07:35:16.499Z,49.58
2018-03-02T07:37:45.259Z,54.03
2018-03-02T07:40:14.074Z,50.10
2018-03-02T07:42:42.916Z,52.17
2018-03-02T07:45:11.832Z,47.55
2018-03-02T07:47:40.709Z,47.58
2018-03-02T07:50:09.510Z,43.50
2018-03-02T07:52:38.318Z,44.72
2018-03-02T07:55:07.155Z,54.28
2018-03-02T07:57:35.962Z,44.00
2018-03-02T08:00:14.602Z,52.50
2018-03-02T08:02:43.499Z,52.25
2018-03-02T08:05:12.372Z,50.80
2018-03-02T08:07:41.217Z,49.63
2018-03-02T08:10:10.039Z,42.47
2018-03-02T08:12:38.875Z,48.67
2018-03-02T08:15:08.442Z,48.95
2018-03-02T08:17:37.306Z,49.60
2018-03-02T08:20:06.151Z,46.95
2018-03-02T08:22:34.945Z,48.28
2018-03-02T08:25:03.838Z,43.90
2018-03-02T08:27:32.635Z,47.40
2018-03-02T08:30:02.281Z,53.03
2018-03-02T08:32:31.129Z,44.60
2018-03-02T08:35:00.715Z,48.97
2018-03-02T08:37:29.515Z,39.92
2018-03-02T08:39:58.746Z,48.53
2018-03-02T08:42:27.547Z,48.75
2018-03-02T08:44:56.404Z,47.22
2018-03-02T08:47:26.087Z,50.12
2018-03-02T08:49:54.943Z,44.92
2018-03-02T08:52:23.765Z,48.87
2018-03-02T08:54:52.602Z,46.53
2018-03-02T08:57:21.450Z,43.05
2018-03-02T08:59:50.278Z,42.20
2018-03-02T09:02:19.136Z,49.40
2018-03-02T09:04:48.710Z,44.03
2018-03-02T09:07:17.552Z,51.47
2018-03-02T09:09:46.402Z,38.92
2018-03-02T09:12:15.243Z,48.33
2018-03-02T09:14:44.092Z,44.28
2018-03-02T09:17:13.712Z,48.47
2018-03-02T09:19:43.321Z,41.63
2018-03-02T09:22:12.944Z,45.05
2018-03-02T09:24:41.798Z,48.58
2018-03-02T09:27:10.650Z,40.28
2018-03-02T09:29:39.418Z,47.47
2018-03-02T09:32:08.310Z,42.92
2018-03-02T09:34:37.180Z,46.28
2018-03-02T09:37:06.766Z,45.60
2018-03-02T09:39:35.618Z,44.75
2018-03-02T09:42:04.329Z,41.80
2018-03-02T09:44:32.562Z,45.55
2018-03-02T09:47:01.460Z,40.55
2018-03-02T09:49:30.262Z,43.50
2018-03-02T09:51:59.108Z,43.28
2018-03-02T09:54:28.675Z,45.47
2018-03-02T09:56:57.356Z,46.67
2018-03-02T09:59:26.183Z,47.30
2018-03-02T10:01:55.817Z,42.28
2018-03-02T10:04:24.665Z,42.55
2018-03-02T10:06:53.664Z,42.85
2018-03-02T10:09:23.289Z,37.13
2018-03-02T10:11:52.220Z,45.20
2018-03-02T10:14:20.778Z,41.73
2018-03-02T10:16:49.618Z,42.70
2018-03-02T10:19:18.539Z,49.15
2018-03-02T10:21:48.154Z,47.00
2018-03-02T10:24:16.992Z,45.40
2018-03-02T10:26:45.795Z,47.50
2018-03-02T10:29:14.507Z,43.85
2018-03-02T10:31:44.222Z,45.85
2018-03-02T10:34:12.818Z,48.70
2018-03-02T10:36:43.134Z,50.83
2018-03-02T10:39:11.999Z,34.78
2018-03-02T10:41:41.582Z,44.78
2018-03-02T10:44:10.419Z,49.40
2018-03-02T10:46:38.958Z,50.13
2018-03-02T10:49:08.314Z,48.17
2018-03-02T10:51:37.014Z,52.57
2018-03-02T10:54:05.565Z,48.83
2018-03-02T10:56:34.109Z,47.00
2018-03-02T10:59:03.966Z,50.57
2018-03-02T11:01:34.379Z,45.73
2018-03-02T11:04:02.765Z,45.97
2018-03-02T11:06:31.277Z,44.40
2018-03-02T11:08:59.833Z,45.37
2018-03-02T11:11:28.207Z,53.73
2018-03-02T11:13:56.840Z,47.27
2018-03-02T11:16:25.480Z,52.43
2018-03-02T11:18:54.026Z,48.43
2018-03-02T11:21:22.627Z,48.30
2018-03-02T11:23:51.199Z,53.43
2018-03-02T11:26:19.734Z,43.30
2018-03-02T11:28:48.290Z,43.37
2018-03-02T11:31:16.802Z,46.77
2018-03-02T11:33:45.367Z,47.17
2018-03-02T11:36:13.985Z,47.47
2018-03-02T11:38:42.780Z,51.87
2018-03-02T11:41:11.400Z,55.70
2018-03-02T11:43:40.975Z,46.07
2018-03-02T11:46:09.579Z,45.40
2018-03-02T11:48:38.150Z,47.07
2018-03-02T11:51:06.616Z,53.90
2018-03-02T11:53:35.942Z,59.57
2018-03-02T11:56:04.494Z,117.43
2018-03-02T11:58:33.028Z,63.37
2018-03-02T12:01:01.603Z,52.40
2018-03-02T12:03:30.123Z,49.27
2018-03-02T12:05:58.228Z,45.93
2018-03-02T12:08:27.580Z,48.77
2018-03-02T12:10:56.037Z,43.83
2018-03-02T12:13:24.571Z,45.27
2018-03-02T12:15:53.098Z,46.27
2018-03-02T12:18:21.653Z,46.10
2018-03-02T12:20:50.964Z,47.13
2018-03-02T12:23:25.859Z,43.43
2018-03-02T12:25:54.495Z,46.03
2018-03-02T12:28:23.050Z,45.10
2018-03-02T12:30:52.379Z,47.97
2018-03-02T12:33:20.949Z,44.73
2018-03-02T12:35:49.502Z,44.83
2018-03-02T12:38:18.155Z,48.57
2018-03-02T12:40:46.746Z,44.80
2018-03-02T12:43:15.354Z,46.90
2018-03-02T12:45:44.069Z,44.53
2018-03-02T12:48:12.730Z,48.20
2018-03-02T12:50:41.285Z,44.70
2018-03-02T12:53:09.855Z,47.20
2018-03-02T12:55:39.348Z,49.53
2018-03-02T12:58:07.898Z,46.87
2018-03-02T13:00:36.411Z,47.83
2018-03-02T13:03:04.975Z,46.47
2018-03-02T13:05:33.473Z,45.70
2018-03-02T13:08:02.079Z,44.77
2018-03-02T13:10:30.637Z,46.60
2018-03-02T13:12:59.193Z,46.07
2018-03-02T13:15:27.736Z,38.80
2018-03-02T13:17:56.259Z,44.80
2018-03-02T13:20:25.318Z,44.00
2018-03-02T13:22:53.939Z,51.80
2018-03-02T13:25:22.549Z,46.90
2018-03-02T13:28:05.586Z,47.87
2018-03-02T13:30:34.114Z,45.50
2018-03-02T13:33:14.953Z,45.10
2018-03-02T13:35:43.523Z,44.63
2018-03-02T13:38:12.077Z,45.07
2018-03-02T13:40:51.669Z,51.00
2018-03-02T13:43:20.294Z,44.10
2018-03-02T13:45:48.833Z,45.37
2018-03-02T13:48:37.439Z,41.83
2018-03-02T13:51:06.044Z,42.97
2018-03-02T13:53:34.568Z,45.07
2018-03-02T13:56:03.237Z,46.47
2018-03-02T13:58:31.579Z,48.73
2018-03-02T14:01:00.180Z,45.00
2018-03-02T14:03:39.994Z,47.53
2018-03-02T14:06:08.565Z,49.30
2018-03-02T14:08:37.140Z,54.37
2018-03-02T14:11:06.163Z,48.70
2018-03-02T14:13:34.730Z,48.53
2018-03-02T14:16:03.313Z,49.70
2018-03-02T14:18:31.851Z,47.63
2018-03-02T14:21:00.372Z,46.43
2018-03-02T14:23:29.014Z,47.80
2018-03-02T14:25:57.580Z,47.73
2018-03-02T14:28:26.114Z,45.03
2018-03-02T14:30:55.464Z,49.77
2018-03-02T14:33:24.022Z,48.17
2018-03-02T14:35:52.573Z,47.17
2018-03-02T14:38:21.164Z,44.60
2018-03-02T14:40:50.150Z,45.33
2018-03-02T14:43:19.487Z,42.00
2018-03-02T14:45:47.770Z,44.13
2018-03-02T14:48:16.354Z,52.00
2018-03-02T14:50:44.930Z,50.17
2018-03-02T14:53:13.593Z,48.27
2018-03-02T14:55:42.140Z,47.97
2018-03-02T14:58:10.735Z,45.27
2018-03-02T15:00:39.292Z,48.27
2018-03-02T15:03:07.876Z,43.13
2018-03-02T15:05:36.132Z,49.47
2018-03-02T15:08:04.742Z,44.40
2018-03-02T15:10:33.329Z,46.67
2018-03-02T15:13:01.914Z,48.87
2018-03-02T15:15:30.466Z,58.23
2018-03-02T15:17:58.975Z,51.60
2018-03-02T15:20:27.512Z,51.97
2018-03-02T15:22:56.164Z,54.97
2018-03-02T15:25:24.724Z,49.70
2018-03-02T15:27:53.278Z,55.20
2018-03-02T15:30:21.788Z,55.43
2018-03-02T15:32:50.059Z,65.97
2018-03-02T15:35:18.350Z,55.70
2018-03-02T15:37:46.887Z,91.20
2018-03-02T15:40:15.595Z,109.80
2018-03-02T15:42:44.181Z,69.40
2018-03-02T15:45:12.605Z,62.63
2018-03-02T15:47:41.919Z,60.03
2018-03-02T15:50:10.498Z,53.00
2018-03-02T15:52:39.154Z,48.20
2018-03-02T15:55:07.684Z,53.17
2018-03-02T15:57:36.066Z,50.90
2018-03-02T16:00:04.626Z,48.07
2018-03-02T16:02:33.211Z,51.20
2018-03-02T16:05:01.782Z,50.63
2018-03-02T16:07:31.137Z,55.90
2018-03-02T16:09:59.725Z,66.37
2018-03-02T16:12:28.252Z,47.97
2018-03-02T16:14:57.608Z,52.60
2018-03-02T16:17:26.176Z,57.40
2018-03-02T16:19:54.708Z,53.20
2018-03-02T16:22:24.095Z,53.40
2018-03-02T16:24:53.454Z,55.30
2018-03-02T16:27:21.998Z,56.17
2018-03-02T16:29:51.350Z,53.63
2018-03-02T16:32:19.905Z,53.53
2018-03-02T16:34:48.483Z,55.10
2018-03-02T16:37:16.701Z,55.27
2018-03-02T16:39:45.256Z,59.47
2018-03-02T16:42:13.850Z,58.87
2018-03-02T16:44:42.394Z,132.80
2018-03-02T16:47:10.984Z,61.17
2018-03-02T16:49:40.272Z,57.70
2018-03-02T16:52:09.625Z,53.33
2018-03-02T16:54:38.164Z,53.13
2018-03-02T16:57:08.077Z,54.27
2018-03-02T16:59:36.847Z,53.30
2018-03-02T17:02:05.400Z,68.63
2018-03-02T17:04:34.403Z,57.83
2018-03-02T17:07:03.086Z,60.97
2018-03-02T17:09:31.710Z,61.57
2018-03-02T17:12:01.067Z,59.63
2018-03-02T17:14:29.876Z,55.20
2018-03-02T17:16:58.594Z,57.47
2018-03-02T17:19:27.906Z,58.63
2018-03-02T17:21:56.518Z,55.57
2018-03-02T17:24:25.091Z,59.80
2018-03-02T17:26:53.621Z,54.87
2018-03-02T17:29:22.167Z,59.27
2018-03-02T17:31:50.764Z,58.57
2018-03-02T17:34:19.549Z,59.38
2018-03-02T17:36:48.172Z,53.97
2018-03-02T17:39:17.553Z,57.63
2018-03-02T17:41:46.137Z,58.23
2018-03-02T17:44:14.702Z,58.23
2018-03-02T17:46:43.324Z,57.17
2018-03-02T17:49:12.713Z,50.30
2018-03-02T17:51:42.035Z,57.93
2018-03-02T17:54:11.381Z,62.27
2018-03-02T17:56:39.945Z,66.43
2018-03-02T17:59:08.548Z,69.83
2018-03-02T18:01:37.090Z,62.93
2018-03-02T18:04:06.398Z,83.70
2018-03-02T18:06:34.969Z,70.20
2018-03-02T18:09:03.166Z,54.23
2018-03-02T18:11:33.511Z,56.43
2018-03-02T18:14:02.088Z,59.00
2018-03-02T18:16:30.633Z,57.67
2018-03-02T18:18:59.220Z,58.13
2018-03-02T18:21:27.920Z,63.03
2018-03-02T18:23:56.526Z,66.20
2018-03-02T18:26:35.051Z,65.33
2018-03-02T18:29:03.544Z,61.13
2018-03-02T18:31:32.102Z,59.03
2018-03-02T18:34:00.674Z,56.90
2018-03-02T18:36:29.325Z,54.93
2018-03-02T18:38:57.890Z,57.07
2018-03-02T18:41:26.494Z,66.40
2018-03-02T18:43:55.881Z,63.43
2018-03-02T18:46:25.230Z,60.30
2018-03-02T18:48:53.845Z,60.47
2018-03-02T18:51:22.386Z,51.57
2018-03-02T18:53:50.889Z,55.80
2018-03-02T18:56:19.464Z,55.33
2018-03-02T18:58:49.075Z,62.30
2018-03-02T19:01:17.897Z,59.53
2018-03-02T19:03:46.551Z,60.70
2018-03-02T19:06:15.090Z,60.63
2018-03-02T19:08:44.156Z,55.85
2018-03-02T19:11:13.014Z,65.75
2018-03-02T19:13:41.589Z,63.57
2018-03-02T19:16:10.302Z,60.53
2018-03-02T19:18:38.895Z,64.10
2018-03-02T19:21:07.471Z,60.77
2018-03-02T19:23:35.704Z,65.70
2018-03-02T19:26:03.934Z,69.27
2018-03-02T19:28:32.498Z,68.47
2018-03-02T19:31:01.049Z,80.20
2018-03-02T19:33:30.687Z,74.32
2018-03-02T19:35:59.224Z,70.10
2018-03-02T19:38:27.729Z,65.22
2018-03-02T19:40:56.542Z,71.00
2018-03-02T19:43:25.250Z,68.23
2018-03-02T19:45:53.803Z,68.87
2018-03-02T19:48:24.773Z,73.47
2018-03-02T19:50:53.605Z,67.37
2018-03-02T19:53:23.188Z,63.60
2018-03-02T19:55:52.032Z,71.37
2018-03-02T19:58:20.556Z,61.50
2018-03-02T20:00:49.848Z,65.53
2018-03-02T20:03:18.757Z,64.80
2018-03-02T20:05:47.243Z,67.28
2018-03-02T20:08:15.853Z,74.27
2018-03-02T20:10:44.623Z,113.47
2018-03-02T20:13:13.171Z,74.77
2018-03-02T20:15:42.023Z,69.97
2018-03-02T20:18:10.837Z,69.68
2018-03-02T20:20:39.456Z,65.00
2018-03-02T20:23:08.313Z,72.15
2018-03-02T20:25:37.165Z,67.47
2018-03-02T20:28:06.018Z,66.43
2018-03-02T20:30:35.318Z,67.67
2018-03-02T20:33:04.174Z,68.95
2018-03-02T20:35:32.987Z,72.37
2018-03-02T20:38:01.552Z,67.47
2018-03-02T20:40:30.393Z,70.03
2018-03-02T20:43:00.133Z,67.07
2018-03-02T20:45:29.131Z,67.18
2018-03-02T20:48:01.427Z,71.00
2018-03-02T20:50:30.767Z,67.40
2018-03-02T20:53:00.422Z,68.25
2018-03-02T20:55:28.990Z,64.23
2018-03-02T20:57:57.875Z,65.87
2018-03-02T21:00:26.666Z,65.57
2018-03-02T21:02:55.568Z,65.43
2018-03-02T21:05:24.489Z,69.47
2018-03-02T21:07:53.811Z,66.33
2018-03-02T21:10:22.664Z,64.43
2018-03-02T21:12:55.870Z,71.70
2018-03-02T21:15:24.545Z,70.00
2018-03-02T21:17:57.270Z,63.85
2018-03-02T21:20:25.877Z,67.20
2018-03-02T21:22:54.767Z,68.22
2018-03-02T21:25:23.483Z,66.30
2018-03-02T21:27:52.337Z,65.45
2018-03-02T21:30:21.196Z,68.67
2018-03-02T21:32:49.784Z,58.83
2018-03-02T21:35:19.414Z,61.40
2018-03-02T21:37:47.979Z,62.00
2018-03-02T21:40:16.480Z,66.57
2018-03-02T21:42:45.367Z,59.90
2018-03-02T21:45:15.010Z,59.03
2018-03-02T21:47:43.919Z,58.80
2018-03-02T21:50:16.498Z,61.50
2018-03-02T21:52:45.094Z,59.60
2018-03-02T21:55:13.970Z,63.20
2018-03-02T21:57:42.834Z,57.72
2018-03-02T22:00:11.391Z,60.50
2018-03-02T22:02:40.007Z,52.87
2018-03-02T22:05:08.568Z,61.13
2018-03-02T22:07:37.164Z,57.30
2018-03-02T22:10:06.048Z,60.22
2018-03-02T22:12:34.624Z,57.33
2018-03-02T22:15:03.470Z,57.88
2018-03-02T22:17:32.036Z,63.53
2018-03-02T22:20:01.402Z,62.00
2018-03-02T22:22:30.275Z,59.97
2018-03-02T22:24:58.892Z,65.17
2018-03-02T22:27:27.660Z,67.27
2018-03-02T22:29:56.246Z,67.77
2018-03-02T22:32:24.841Z,72.30
2018-03-02T22:34:53.410Z,63.10
2018-03-02T22:37:22.223Z,68.50
2018-03-02T22:39:51.085Z,66.30
2018-03-02T22:42:19.867Z,64.35
2018-03-02T22:44:48.715Z,75.53
2018-03-02T22:47:17.499Z,64.65
2018-03-02T22:49:46.352Z,68.53
2018-03-02T22:52:15.201Z,70.78
2018-03-02T22:54:43.987Z,73.80
2018-03-02T22:57:12.825Z,70.80
2018-03-02T22:59:41.671Z,71.20
2018-03-02T23:02:11.269Z,73.45
2018-03-02T23:04:40.141Z,79.25
2018-03-02T23:07:08.952Z,75.87
2018-03-02T23:09:38.563Z,79.80
2018-03-02T23:12:07.136Z,88.63
2018-03-02T23:14:36.012Z,79.60
2018-03-02T23:17:04.588Z,81.13
2018-03-02T23:19:33.440Z,89.90
2018-03-02T23:22:02.010Z,89.67
2018-03-02T23:24:30.595Z,93.93
2018-03-02T23:26:59.395Z,81.82
2018-03-02T23:29:28.275Z,90.00
2018-03-02T23:31:57.103Z,93.03
2018-03-02T23:34:25.957Z,96.25
2018-03-02T23:36:54.760Z,93.87
2018-03-02T23:39:23.622Z,89.78
2018-03-02T23:41:52.459Z,106.63
2018-03-02T23:44:21.293Z,105.45
2018-03-02T23:46:50.195Z,97.03
2018-03-02T23:49:19.018Z,89.85
2018-03-02T23:51:47.888Z,97.78
2018-03-02T23:54:16.422Z,93.32
2018-03-02T23:56:45.206Z,97.25
2018-03-02T23:59:13.790Z,91.07
